Flight Track Log - Related Links

Times and Time Zones

All times are in EDT time to prevent confusion due to time zone crossing. See the DAL858 flight status page for this flight to view local times or setup timezone preferences in your user account.

Time Position Orientation Groundspeed Altitude Reporting Facility
EDT Latitude Longitude Course Direction KTS MPH feet Rate Location/Type
Mon 04:23:59 PM 44.9000 -93.2333 359° North 172 198 2,200  Level Minneapolis TRACON
Mon 04:24:55 PM 44.9414 -93.2342 359° North 196 226 3,300 2,571 Climbing Minneapolis Center
Mon 04:25:58 PM 44.9767 -93.1206 66° East 283 326 7,300 3,600 Climbing Minneapolis Center
Mon 04:27:00 PM 44.9314 -93.0217 123° Southeast 297 342 10,800 2,806 Climbing Minneapolis Center
Mon 04:28:02 PM 44.8847 -92.9167 122° Southeast 313 360 13,100 2,226 Climbing Minneapolis Center
Mon 04:29:04 PM 44.8333 -92.8050 123° Southeast 336 387 15,400 1,742 Climbing Minneapolis Center
Mon 04:30:06 PM 44.7775 -92.6839 123° Southeast 371 427 16,700 1,790 Climbing Minneapolis Center
Mon 04:31:08 PM 44.7161 -92.5531 123° Southeast 396 456 19,100 1,985 Climbing Minneapolis Center
Mon 04:32:22 PM 44.6539 -92.4178 123° Southeast 406 467 21,200 2,174 Climbing Minneapolis Center
Mon 04:33:37 PM 44.5497 -92.1972 123° Southeast 424 488 24,500 1,971 Climbing Minneapolis Center
Mon 04:34:39 PM 44.4769 -92.0558 126° Southeast 443 510 25,700 1,161 Climbing Minneapolis Center
Mon 04:35:41 PM 44.3994 -91.9089 126° Southeast 465 535 26,900 1,210 Climbing Minneapolis Center
Mon 04:36:43 PM 44.3303 -91.7472 121° Southeast 485 558 28,200 1,258 Climbing Minneapolis Center
Mon 04:37:45 PM 44.2650 -91.5747 118° Southeast 499 574 29,500 1,161 Climbing Minneapolis Center
Mon 04:38:47 PM 44.1986 -91.4003 118° Southeast 507 583 30,600 1,258 Climbing Minneapolis Center
Mon 04:39:49 PM 44.1253 -91.2092 118° Southeast 515 593 32,100 1,258 Climbing Minneapolis Center
Mon 04:40:51 PM 44.0564 -91.0303 118° Southeast 524 603 33,200 1,258 Climbing Minneapolis Center
Mon 04:41:53 PM 43.9725 -90.8169 119° Southeast 527 606 34,700 1,355 Climbing Minneapolis Center
Mon 04:42:55 PM 43.9036 -90.6406 118° Southeast 525 604 36,000 1,104 Climbing Minneapolis Center
Mon 04:43:58 PM 43.8325 -90.4617 119° Southeast 518 596 37,000 480 Climbing Minneapolis Center
Mon 04:45:00 PM 43.7656 -90.2942 119° Southeast 518 596 37,000  Level Minneapolis Center
Mon 04:46:02 PM 43.6942 -90.1150 119° Southeast 515 593 37,000  Level Chicago Center
Mon 04:47:04 PM 43.6100 -89.9103 120° Southeast 524 603 37,000  Level Chicago Center
Mon 04:48:06 PM 43.5422 -89.7333 118° Southeast 524 603 37,000  Level Chicago Center
Mon 04:49:08 PM 43.4889 -89.5447 111° Southeast 530 610 37,000  Level Chicago Center
Mon 04:50:10 PM 43.4339 -89.3556 112° Southeast 534 615 37,000  Level Chicago Center
Mon 04:51:12 PM 43.3789 -89.1672 112° Southeast 533 613 37,000  Level Chicago Center
Mon 04:52:14 PM 43.3136 -88.9464 112° Southeast 537 618 37,000  Level Chicago Center
Mon 04:53:16 PM 43.2575 -88.7597 112° Southeast 535 616 37,000  Level Chicago Center
Mon 04:54:18 PM 43.2022 -88.5719 112° Southeast 538 619 37,000  Level Chicago Center
Mon 04:55:21 PM 43.1461 -88.3839 112° Southeast 541 623 37,000  Level Chicago Center
Mon 04:56:23 PM 43.1208 -88.1472 98° East 552 635 37,000  Level Chicago Center
Mon 04:57:25 PM 43.1311 -87.9381 86° East 553 636 37,000  Level Chicago Center
Mon 04:58:27 PM 43.1419 -87.7275 86° East 556 640 37,000  Level Chicago Center
Mon 04:59:29 PM 43.1519 -87.5175 86° East 555 639 37,000  Level Chicago Center
Mon 05:00:31 PM 43.1606 -87.2989 87° East 558 642 37,000  Level Chicago Center
Mon 05:01:33 PM 43.1708 -87.0858 86° East 562 647 37,000  Level Chicago Center
Mon 05:02:35 PM 43.1767 -86.8728 88° East 561 646 37,000  Level Chicago Center
Mon 05:03:37 PM 43.1872 -86.6161 87° East 561 646 37,000  Level Chicago Center
Mon 05:04:39 PM 43.1947 -86.4014 87° East 562 647 37,000  Level Chicago Center
Mon 05:05:41 PM 43.2022 -86.1817 87° East 571 657 37,000  Level Chicago Center
Mon 05:06:43 PM 43.2094 -85.9569 87° East 575 662 37,000  Level Chicago Center
Mon 05:07:46 PM 43.2150 -85.7333 88° East 575 662 37,000  Level Chicago Center
Mon 05:08:48 PM 43.2206 -85.5128 88° East 576 663 37,000  Level Chicago Center
Mon 05:09:50 PM 43.2250 -85.2928 88° East 576 663 37,000  Level Chicago Center
Mon 05:10:52 PM 43.2308 -85.0739 88° East 576 663 37,000  Level Chicago Center
Mon 05:11:54 PM 43.2356 -84.8097 89° East 577 664 37,000  Level Chicago Center
Mon 05:12:56 PM 43.2394 -84.5889 89° East 580 667 37,000 339 Level Chicago Center
Mon 05:13:58 PM 43.2419 -84.3672 89° East 581 669 37,700 873 Climbing Chicago Center
Mon 05:14:46 PM 43.2422 -84.1772 90° East 575 662 38,600 722 Climbing Cleveland Center
Mon 05:15:46 PM 43.2453 -84.0061 89° East 570 656 39,000 200 Climbing Cleveland Center
Mon 05:16:46 PM 43.2497 -83.7756 88° East 558 642 39,000  Level Cleveland Center
Mon 05:17:46 PM 43.2511 -83.5619 89° East 552 635 39,000  Level Cleveland Center
Mon 05:18:46 PM 43.2525 -83.3453 89° East 552 635 39,000  Level Cleveland Center
Mon 05:19:46 PM 43.2533 -83.1258 90° East 558 642 39,000  Level Cleveland Center
Mon 05:20:24 PM 43.2500 -82.9500 91° East 580 667 39,000  Level Toronto Center
Mon 05:20:46 PM 43.2536 -82.9092 83° East 563 648 39,000  Level Cleveland Center
Mon 05:21:24 PM 43.2333 -82.7500 100° East 580 667 39,000  Level Toronto Center
Mon 05:21:46 PM 43.2497 -82.6867 70° East 574 661 39,000  Level Cleveland Center
Mon 05:22:24 PM 43.2167 -82.5167 105° East 580 667 39,000  Level Toronto Center
Mon 05:23:24 PM 43.1833 -82.3000 102° East 580 667 39,000  Level Toronto Center
Mon 05:24:24 PM 43.1500 -82.1000 103° East 580 667 39,000  Level Toronto Center
Mon 05:25:24 PM 43.1333 -81.8667 96° East 580 667 39,000  Level Toronto Center
Mon 05:26:24 PM 43.1000 -81.6667 103° East 580 667 39,000  Level Toronto Center
Mon 05:27:24 PM 43.0667 -81.4333 101° East 580 667 39,000  Level Toronto Center
Mon 05:28:24 PM 43.0333 -81.2333 103° East 570 656 39,000  Level Toronto Center
Mon 05:29:24 PM 43.0167 -81.0167 96° East 570 656 39,000  Level Toronto Center
Mon 05:30:24 PM 43.0167 -80.8000 90° East 570 656 39,000  Level Toronto Center
Mon 05:31:24 PM 43.0167 -80.5833 90° East 570 656 39,000  Level Toronto Center
Mon 05:32:24 PM 43.0000 -80.3667 96° East 570 656 39,000  Level Toronto Center
Mon 05:33:24 PM 43.0000 -80.1500 90° East 570 656 39,000  Level Toronto Center
Mon 05:34:24 PM 42.9833 -79.9333 96° East 570 656 39,000  Level Toronto Center
Mon 05:35:24 PM 42.9833 -79.7167 90° East 570 656 39,000  Level Toronto Center
Mon 05:36:24 PM 43.0000 -79.5167 83° East 560 644 39,000  Level Toronto Center
Mon 05:37:24 PM 43.0000 -79.3167 90° East 560 644 39,000  Level Toronto Center
Mon 05:38:24 PM 43.0167 -79.0833 84° East 560 644 39,000  Level Toronto Center
Mon 05:39:24 PM 43.0333 -78.8833 83° East 560 644 39,000  Level Toronto Center
Mon 05:40:24 PM 43.0333 -78.6500 90° East 560 644 39,000  Level Toronto Center
Mon 05:40:58 PM 43.0494 -78.5889 70° East 555 639 39,000  Level Cleveland Center
Mon 05:41:58 PM 43.0583 -78.3811 87° East 555 639 39,000  Level Cleveland Center
Mon 05:42:58 PM 43.0689 -78.1761 86° East 555 639 39,000  Level Cleveland Center
Mon 05:43:58 PM 43.0747 -77.9656 88° East 555 639 39,000  Level Cleveland Center
Mon 05:44:58 PM 43.0844 -77.7575 86° East 555 639 39,000  Level Cleveland Center
Mon 05:45:58 PM 43.0897 -77.5556 88° East 550 633 39,000  Level Cleveland Center
Mon 05:46:58 PM 43.0967 -77.3503 87° East 545 627 39,000  Level Cleveland Center
Mon 05:47:58 PM 43.1031 -77.1453 87° East 539 620 39,000  Level Cleveland Center
Mon 05:49:43 PM 43.1119 -76.7781 88° East 541 623 39,000  Level Boston Center
Mon 05:50:43 PM 43.1064 -76.5928 92° East 541 623 39,000  Level Boston Center
Mon 05:51:43 PM 43.0822 -76.3947 99° East 536 617 39,000  Level Boston Center
Mon 05:52:43 PM 43.0575 -76.1972 100° East 531 611 39,000  Level Boston Center
Mon 05:53:43 PM 43.0292 -75.9767 100° East 531 611 39,000  Level Boston Center
Mon 05:54:43 PM 43.0081 -75.7794 98° East 531 611 39,000  Level Boston Center
Mon 05:55:43 PM 42.9822 -75.5822 100° East 531 611 39,000  Level Boston Center
Mon 05:56:43 PM 42.9614 -75.4250 100° East 531 611 39,000  Level Boston Center
Mon 05:57:43 PM 42.9319 -75.1881 100° East 526 605 39,000  Level Boston Center
Mon 05:58:43 PM 42.9053 -74.9942 101° East 526 605 39,000 -600 Level Boston Center
Mon 05:59:43 PM 42.8803 -74.7947 100° East 526 605 37,800 -1,000 Descending Boston Center
Mon 06:00:43 PM 42.8533 -74.5869 100° East 533 613 37,000 -400 Descending Boston Center
Mon 06:01:43 PM 42.8256 -74.3878 101° East 538 619 37,000  Level Boston Center
Mon 06:02:43 PM 42.7975 -74.1831 101° East 549 632 37,000 -50 Level Boston Center
Mon 06:03:43 PM 42.7694 -73.9758 100° East 549 632 36,900 -650 Descending Boston Center
Mon 06:04:43 PM 42.7406 -73.7744 101° East 549 632 35,700 -1,150 Descending Boston Center
Mon 06:05:43 PM 42.7258 -73.5961 96° East 543 625 34,600 -800 Descending Boston Center
Mon 06:06:43 PM 42.7050 -73.3922 98° East 543 625 34,100 -300 Descending Boston Center
Mon 06:07:43 PM 42.6856 -73.1942 98° East 536 617 34,000 -250 Descending Boston Center
Mon 06:08:43 PM 42.6636 -72.9906 98° East 520 598 33,600 -1,100 Descending Boston Center
Mon 06:09:43 PM 42.6417 -72.8042 99° East 505 581 31,800 -1,300 Descending Boston Center
Mon 06:10:43 PM 42.6192 -72.6292 100° East 483 556 31,000 -400 Descending Boston Center
Mon 06:11:43 PM 42.5964 -72.4625 100° East 464 534 31,000  Level Boston Center
Mon 06:12:43 PM 42.5794 -72.3189 99° East 470 541 31,000 -292 Level Boston Center
Mon 06:14:07 PM 42.5500 -72.0906 100° East 459 528 30,300 -708 Descending Boston Center
Mon 06:15:07 PM 42.6014 -71.9294 67° East 413 475 29,300 -1,200 Descending Boston Center
Mon 06:16:07 PM 42.6828 -71.9628 343° North 251 289 27,900 -1,150 Descending Boston Center
Mon 06:17:07 PM 42.7125 -72.0642 292° West 188 216 27,000 -450 Descending Boston Center
Mon 06:18:07 PM 42.7314 -72.1689 284° West 228 262 27,000  Level Boston Center
Mon 06:19:07 PM 42.7461 -72.2675 282° West 259 298 27,000 -50 Level Boston Center
Mon 06:20:07 PM 42.7650 -72.3722 284° West 276 318 26,900 -500 Descending Boston Center
Mon 06:21:07 PM 42.7817 -72.4683 283° West 276 318 26,000 -450 Descending Boston Center
Mon 06:22:07 PM 42.7483 -72.5617 244° Southwest 264 304 26,000  Level Boston Center
Mon 06:23:07 PM 42.6669 -72.5783 189° South 242 278 26,000  Level Boston Center
Mon 06:24:07 PM 42.6172 -72.4936 129° Southeast 223 257 26,000  Level Boston Center
Mon 06:25:07 PM 42.5858 -72.3217 104° East 290 334 26,000  Level Boston Center
Mon 06:26:07 PM 42.5647 -72.1808 101° East 338 389 26,000  Level Boston Center
Mon 06:27:07 PM 42.5456 -72.0400 100° East 354 407 26,000  Level Boston Center
Mon 06:28:19 PM 42.6056 -71.9464 49° Northeast 290 334 26,000  Level Boston Center
Mon 06:29:19 PM 42.6769 -72.0278 320° Northwest 165 190 26,000  Level Boston Center
Mon 06:30:19 PM 42.6939 -72.1097 286° West 186 214 26,000  Level Boston Center
Mon 06:31:19 PM 42.7108 -72.2339 281° West 242 278 26,000  Level Boston Center
Mon 06:32:19 PM 42.7275 -72.3128 286° West 261 300 26,000  Level Boston Center
Mon 06:33:19 PM 42.7464 -72.4317 282° West 268 308 26,000  Level Boston Center
Mon 06:34:19 PM 42.7400 -72.5278 265° West 273 314 26,000  Level Boston Center
Mon 06:35:19 PM 42.6672 -72.5700 203° Southwest 230 265 26,000 -250 Level Boston Center
Mon 06:36:19 PM 42.6089 -72.4656 127° Southeast 201 231 25,500 -500 Descending Boston Center
Mon 06:37:19 PM 42.5858 -72.3161 102° East 299 344 25,000 -600 Descending Boston Center
Mon 06:38:19 PM 42.5669 -72.1808 101° East 323 372 24,300 -650 Descending Boston Center
Mon 06:39:19 PM 42.5456 -72.0511 103° East 342 394 23,700 -550 Descending Boston Center
Mon 06:40:19 PM 42.5931 -71.9550 56° Northeast 319 367 23,200 -1,100 Descending Boston Center
Mon 06:41:19 PM 42.6622 -72.0136 328° Northwest 178 205 21,500 -1,600 Descending Boston Center
Mon 06:42:19 PM 42.6689 -72.1125 275° West 154 177 20,000 -1,850 Descending Boston Center
Mon 06:43:19 PM 42.6000 -72.1411 197° South 134 154 17,800 -2,200 Descending Boston Center
Mon 06:44:19 PM 42.5600 -72.0172 114° Southeast 239 275 15,600 -1,700 Descending Boston Center
Mon 06:45:19 PM 42.5450 -71.8906 99° East 281 323 14,400 -1,450 Descending Boston Center
Mon 06:46:19 PM 42.5256 -71.7639 102° East 334 384 12,700 -1,700 Descending Boston Center
Mon 06:47:19 PM 42.5103 -71.6572 101° East 334 384 11,000 -1,021 Descending Boston Center
Mon 06:47:53 PM 42.5000 -71.5667 99° East 326 375 11,100  Climbing KA90
Mon 06:48:53 PM 42.4833 -71.4667 103° East 291 335 11,000 -550 Descending KA90
Mon 06:49:53 PM 42.4833 -71.3500 90° East 278 320 10,000 -1,000 Descending KA90
Mon 06:50:53 PM 42.4667 -71.2500 103° East 270 311 9,000 -900 Descending KA90
Mon 06:51:53 PM 42.4667 -71.1500 90° East 271 312 8,200 -450 Descending KA90
Mon 06:52:53 PM 42.4500 -71.0500 103° East 264 304 8,100 -550 Descending KA90
Mon 06:53:53 PM 42.4667 -70.9667 75° East 259 298 7,100 -1,200 Descending KA90
Mon 06:54:53 PM 42.4833 -70.8667 77° East 256 295 5,700 -1,347 Descending KA90
Mon 06:55:31 PM 42.4908 -70.8156 79° East 254 292 4,900 -1,102 Descending Boston Center
Mon 06:56:31 PM 42.5044 -70.7364 77° East 228 262 3,900 -500 Descending Boston Center
Mon 06:57:31 PM 42.5178 -70.6569 77° East 214 246 3,900  Level Boston Center
Mon 06:58:31 PM 42.4919 -70.6014 122° Southeast 181 208 3,900 -200 Level Boston Center
Mon 06:59:31 PM 42.4464 -70.6367 210° Southwest 118 136 3,500 -297 Descending Boston Center
Mon 07:01:53 PM 42.4000 -70.7833 247° West 190 219 2,900 -446 Descending KA90
Mon 07:02:53 PM 42.3833 -70.8500 251° West 170 196 2,000 -900 Descending KA90
Mon 07:03:53 PM 42.3667 -70.9167 251° West 168 193 1,100 -750 Descending KA90
Mon 07:04:53 PM 42.3667 -70.9667 270° West 123 142 500 -600 Descending KA90

Login

Don't have an account? Register now (free) for customized features, flight alerts, and more!